KLBT

Lumberton Regional Airport

Lumberton, North Carolina, USA
METAR KLBT 101606Z AUTO 01018KT 1 3/4SM -RA BR OVC008 03/01 A3007 RMK AO2 RAB1556UPB1557E03 CIG 006V012 P0000 T00330011
Observed Flight Rules
Dec-10 @ 16:06 UTC (22 minutes ago) Instrument Flight Rules
Wind Visibility Clouds Conditions
10° at 18 knots 1 3/4 miles
  • Overcast at 800' AGL
  • Light Rain
  • Mist
Temperatures Readings Precipitation
Current 3°C / 37°F
Dewpoint 1°C / 34°F
Humidity 87%
Altimeter 30.07" Hg
Pressure 1018 hPa
Elevation 37
Current Rain 0.005
METAR KLBT 101606Z AUTO 01018KT 1 3/4SM -RA BR OVC008 03/01 A3007 RMK AO2 RAB1556UPB1557E03 CIG 006V012 P0000 T00330011
Observed Flight Rules
Dec-10 @ 16:06 UTC
(22 minutes ago)
IFR
Wind Visibility
10° at 18 knots 1 3/4 miles
Clouds
  • Overcast at 800' AGL
Conditions
  • Light Rain
  • Mist
Temperature Dewpoint
3°C / 37°F 1°C / 34°F
Humidity Altimeter Pressure
87% 30.07" Hg 1018 hPa
Current Rain
0.005